Time;durP1;ratioP1;P1;durP2;ratioP2;P2;SDS_P1;SDS_P2;PMS_P1;PMS_P2;Temp;Humidity;BMP_temperature;BMP_pressure;BME280_temperature;BME280_humidity;BME280_pressure;Samples;Min_cycle;Max_cycle;Signal;HPM_P1;HPM_P2
2021/11/03 00:02:05;;;;;;;8.63;7.33;;;9.30;99.90;;;;;;5034688;28;20449;-51
2021/11/03 00:04:33;;;;;;;11.10;8.40;;;9.40;99.90;;;;;;5034809;28;20471;-52
2021/11/03 00:06:59;;;;;;;9.07;7.80;;;9.10;99.90;;;;;;5034332;28;20447;-51
2021/11/03 00:09:27;;;;;;;9.27;7.73;;;9.40;99.90;;;;;;5034382;28;20439;-51
2021/11/03 00:11:55;;;;;;;9.57;8.20;;;8.80;99.90;;;;;;5034353;28;20447;-51
2021/11/03 00:14:21;;;;;;;10.03;7.23;;;9.30;99.90;;;;;;5034549;28;20427;-52
2021/11/03 00:16:48;;;;;;;8.30;7.37;;;8.70;99.90;;;;;;5034347;28;20456;-51
2021/11/03 00:19:15;;;;;;;9.30;7.47;;;9.00;99.90;;;;;;5033822;28;20435;-51
2021/11/03 00:21:41;;;;;;;8.10;7.03;;;9.60;99.90;;;;;;5016631;28;20450;-51
2021/11/03 00:24:08;;;;;;;11.20;7.70;;;9.20;99.90;;;;;;5034301;28;20430;-52
2021/11/03 00:26:35;;;;;;;8.70;7.80;;;9.20;99.90;;;;;;5034740;28;20450;-49
2021/11/03 00:29:03;;;;;;;10.50;8.70;;;9.20;99.90;;;;;;5033170;28;20439;-49
2021/11/03 00:31:29;;;;;;;10.30;9.30;;;9.20;99.90;;;;;;5033817;28;20414;-48
2021/11/03 00:33:56;;;;;;;10.90;8.97;;;9.10;99.90;;;;;;5015642;28;20798;-49
2021/11/03 00:36:22;;;;;;;11.03;8.07;;;9.60;99.90;;;;;;5015535;28;20447;-48
2021/11/03 00:38:49;;;;;;;10.83;8.23;;;8.80;99.90;;;;;;5032886;28;20453;-49
2021/11/03 00:41:16;;;;;;;9.20;7.53;;;9.00;99.90;;;;;;5015583;28;20433;-49
2021/11/03 00:43:42;;;;;;;10.17;8.13;;;9.00;99.90;;;;;;5033215;28;20425;-48
2021/11/03 00:46:11;;;;;;;8.83;7.90;;;9.00;99.90;;;;;;5017324;28;20418;-49
2021/11/03 00:48:37;;;;;;;8.70;7.53;;;9.00;99.90;;;;;;5016458;28;20414;-48
2021/11/03 00:51:04;;;;;;;8.77;7.93;;;9.30;99.90;;;;;;5015790;28;20454;-49
2021/11/03 00:53:31;;;;;;;10.03;8.07;;;8.70;99.90;;;;;;5015355;28;20573;-48
2021/11/03 00:55:58;;;;;;;9.03;8.13;;;9.10;99.90;;;;;;5015463;28;20455;-48
2021/11/03 00:58:25;;;;;;;8.67;7.87;;;9.20;99.90;;;;;;5032495;28;20456;-48
2021/11/03 01:00:51;;;;;;;8.73;7.47;;;9.10;99.90;;;;;;5015177;28;20443;-48
2021/11/03 01:03:19;;;;;;;10.10;8.80;;;9.10;99.90;;;;;;5033258;28;20875;-48
2021/11/03 01:05:46;;;;;;;11.07;8.60;;;8.70;99.90;;;;;;5015206;28;20856;-49
2021/11/03 01:08:14;;;;;;;9.23;8.13;;;8.60;99.90;;;;;;5014926;28;20485;-49
2021/11/03 01:10:44;;;;;;;11.77;8.40;;;8.90;99.90;;;;;;5032886;28;20435;-49
2021/11/03 01:13:11;;;;;;;9.27;7.90;;;9.00;99.90;;;;;;5015114;28;20447;-49
2021/11/03 01:15:39;;;;;;;9.63;8.40;;;8.40;99.90;;;;;;5014910;28;20498;-48
2021/11/03 01:18:06;;;;;;;11.73;9.60;;;8.80;99.90;;;;;;5031531;28;20543;-49
2021/11/03 01:20:36;;;;;;;11.40;9.17;;;8.90;99.90;;;;;;5014597;28;20444;-48
2021/11/03 01:23:05;;;;;;;15.97;9.57;;;8.60;99.90;;;;;;5032528;28;20436;-49
2021/11/03 01:25:32;;;;;;;13.57;10.53;;;9.00;99.90;;;;;;5014597;28;20956;-49
2021/11/03 01:27:58;;;;;;;10.50;9.47;;;8.80;99.90;;;;;;5031970;28;20471;-49
2021/11/03 01:30:26;;;;;;;11.10;9.20;;;9.00;99.90;;;;;;5032487;28;20518;-48
2021/11/03 01:32:54;;;;;;;10.50;8.03;;;8.80;99.90;;;;;;5014709;28;20484;-49
2021/11/03 01:35:22;;;;;;;11.00;9.40;;;8.60;99.90;;;;;;5014687;28;20447;-48
2021/11/03 01:37:51;;;;;;;10.17;9.13;;;8.80;99.90;;;;;;5014106;28;20475;-49
2021/11/03 01:40:20;;;;;;;10.37;9.27;;;8.50;99.90;;;;;;5014538;28;20451;-48
2021/11/03 01:42:48;;;;;;;10.60;9.50;;;8.70;99.90;;;;;;5014694;28;20451;-48
2021/11/03 01:45:19;;;;;;;11.90;9.70;;;8.70;99.90;;;;;;5014431;28;20470;-48
2021/11/03 01:47:48;;;;;;;12.70;9.00;;;8.60;99.90;;;;;;5014448;28;20475;-48
2021/11/03 01:50:21;;;;;;;11.80;8.90;;;8.80;99.90;;;;;;5015594;28;20546;-48
2021/11/03 01:52:56;;;;;;;12.70;10.27;;;8.90;99.90;;;;;;5014802;28;20554;-47
2021/11/03 01:55:25;;;;;;;10.93;9.33;;;8.80;99.90;;;;;;5014625;28;20538;-49
2021/11/03 01:57:57;;;;;;;11.30;9.77;;;8.50;99.90;;;;;;5013920;28;20896;-49
2021/11/03 02:00:29;;;;;;;13.17;9.80;;;8.40;99.90;;;;;;5014566;28;20451;-49
2021/11/03 02:03:05;;;;;;;12.67;11.23;;;8.70;99.90;;;;;;5015324;28;20533;-47
2021/11/03 02:05:32;;;;;;;12.93;9.70;;;8.50;99.90;;;;;;5016357;28;20821;-49
2021/11/03 02:08:02;;;;;;;12.87;9.83;;;8.40;99.90;;;;;;5014308;28;20524;-50
2021/11/03 02:10:30;;;;;;;15.90;10.10;;;8.50;99.90;;;;;;5032917;28;20427;-49
2021/11/03 02:12:59;;;;;;;11.83;9.70;;;8.40;99.90;;;;;;5016031;28;20418;-49
2021/11/03 02:15:27;;;;;;;12.80;9.33;;;8.30;99.90;;;;;;5015841;28;20456;-49
2021/11/03 02:17:55;;;;;;;12.73;9.80;;;8.30;99.90;;;;;;5016277;28;20986;-49
2021/11/03 02:20:25;;;;;;;14.73;11.13;;;8.20;99.90;;;;;;5016485;28;20456;-49
2021/11/03 02:23:06;;;;;;;11.50;10.30;;;8.20;99.90;;;;;;5015656;28;20917;-48
2021/11/03 02:25:42;;;;;;;12.20;10.30;;;8.20;99.90;;;;;;5015170;28;20486;-48
2021/11/03 02:28:10;;;;;;;11.47;10.37;;;8.10;99.90;;;;;;5013645;28;20491;-49
2021/11/03 02:30:37;;;;;;;12.30;9.50;;;8.30;99.90;;;;;;5017953;28;20507;-48
2021/11/03 02:33:08;;;;;;;10.93;9.80;;;8.60;99.90;;;;;;5036210;28;20874;-49
2021/11/03 02:35:36;;;;;;;11.73;10.53;;;8.20;99.90;;;;;;5018409;28;20458;-48
2021/11/03 02:38:05;;;;;;;10.77;9.67;;;8.30;99.90;;;;;;5017649;28;20474;-47
2021/11/03 02:40:46;;;;;;;11.43;10.23;;;8.20;99.90;;;;;;5018087;28;20971;-49
2021/11/03 02:43:19;;;;;;;12.37;9.40;;;8.00;99.90;;;;;;5018239;28;20816;-49
2021/11/03 02:45:49;;;;;;;10.87;9.70;;;8.20;99.90;;;;;;5035759;28;20636;-49
2021/11/03 02:48:18;;;;;;;11.10;8.90;;;7.70;99.90;;;;;;5017498;28;20470;-48
2021/11/03 02:50:57;;;;;;;10.90;8.97;;;8.10;99.90;;;;;;5035478;28;20441;-49
2021/11/03 02:53:24;;;;;;;12.03;9.40;;;8.20;99.90;;;;;;5017827;28;20429;-49
2021/11/03 02:55:53;;;;;;;15.70;8.87;;;8.20;99.90;;;;;;5017594;28;20656;-48
2021/11/03 02:58:20;;;;;;;10.33;9.23;;;8.00;99.90;;;;;;5017179;28;20943;-49
2021/11/03 03:00:48;;;;;;;9.50;8.10;;;7.90;99.90;;;;;;5017504;28;20419;-48
2021/11/03 03:03:15;;;;;;;9.67;8.63;;;7.90;99.90;;;;;;5035123;28;20497;-49
2021/11/03 03:05:49;;;;;;;11.53;8.63;;;7.50;99.90;;;;;;5017336;28;20431;-48
2021/11/03 03:08:16;;;;;;;9.60;8.60;;;8.00;99.90;;;;;;5034665;28;20457;-48
2021/11/03 03:10:43;;;;;;;9.10;8.10;;;8.10;99.90;;;;;;5017284;28;20994;-48
2021/11/03 03:13:11;;;;;;;9.77;8.80;;;8.00;99.90;;;;;;5034971;28;20435;-48
2021/11/03 03:15:39;;;;;;;10.53;8.60;;;8.10;99.90;;;;;;5017098;28;20943;-49
2021/11/03 03:18:06;;;;;;;10.97;8.43;;;7.90;99.90;;;;;;5016655;28;20837;-48
2021/11/03 03:20:32;;;;;;;12.60;9.23;;;7.80;99.90;;;;;;5018758;28;20468;-48
2021/11/03 03:22:59;;;;;;;10.90;9.23;;;8.50;99.90;;;;;;5036696;28;20952;-49
2021/11/03 03:25:28;;;;;;;9.43;8.47;;;7.80;99.90;;;;;;5017111;28;20446;-48
2021/11/03 03:27:57;;;;;;;12.67;8.70;;;8.00;99.90;;;;;;5016342;28;21048;-48
2021/11/03 03:30:25;;;;;;;10.50;8.53;;;8.00;99.90;;;;;;5016749;28;20548;-48
2021/11/03 03:32:51;;;;;;;10.60;8.43;;;8.20;99.90;;;;;;5016873;28;20454;-48
2021/11/03 03:35:18;;;;;;;11.83;9.70;;;7.40;99.90;;;;;;5034504;28;20442;-48
2021/11/03 03:37:45;;;;;;;13.67;10.17;;;8.30;99.90;;;;;;5016568;28;21164;-48
2021/11/03 03:40:13;;;;;;;10.47;8.80;;;7.90;99.90;;;;;;5016330;28;20957;-48
2021/11/03 03:42:39;;;;;;;14.20;9.33;;;7.90;99.90;;;;;;5016414;28;20453;-49
2021/11/03 03:45:08;;;;;;;9.93;8.93;;;8.30;99.90;;;;;;5034404;28;20521;-47
2021/11/03 03:47:37;;;;;;;13.87;9.77;;;7.90;99.90;;;;;;5016382;28;20476;-48
2021/11/03 03:50:05;;;;;;;12.37;9.50;;;8.00;99.90;;;;;;5034366;28;20432;-48
2021/11/03 03:52:32;;;;;;;12.67;9.33;;;7.70;99.90;;;;;;5016486;28;20815;-48
2021/11/03 03:54:58;;;;;;;12.87;9.93;;;7.90;99.90;;;;;;5016306;28;20485;-49
2021/11/03 03:57:25;;;;;;;12.37;9.83;;;7.20;99.90;;;;;;5033909;28;20501;-49
2021/11/03 03:59:52;;;;;;;11.17;10.00;;;7.40;99.90;;;;;;5015894;28;20487;-49
2021/11/03 04:02:19;;;;;;;10.50;9.40;;;7.70;99.90;;;;;;5016269;28;20487;-48
2021/11/03 04:04:48;;;;;;;10.90;9.90;;;7.60;99.90;;;;;;5016616;28;20988;-49
2021/11/03 04:07:14;;;;;;;15.03;11.40;;;7.50;99.90;;;;;;5016403;28;20443;-49
2021/11/03 04:09:41;;;;;;;12.87;10.73;;;7.70;99.90;;;;;;5016024;28;20500;-48
2021/11/03 04:12:10;;;;;;;10.23;9.23;;;7.50;99.90;;;;;;5016028;28;20551;-48
2021/11/03 04:14:36;;;;;;;11.80;9.53;;;7.60;99.90;;;;;;5016040;28;20468;-49
2021/11/03 04:17:04;;;;;;;11.87;9.17;;;7.70;99.90;;;;;;5015850;28;20474;-49
2021/11/03 04:19:32;;;;;;;11.03;8.57;;;7.60;99.90;;;;;;5015618;28;20490;-50
2021/11/03 04:22:01;;;;;;;14.10;10.40;;;7.80;99.90;;;;;;5033658;28;20443;-49
2021/11/03 04:24:38;;;;;;;13.37;10.60;;;7.20;99.90;;;;;;5015674;28;20453;-48
2021/11/03 04:27:05;;;;;;;14.70;10.50;;;7.50;99.90;;;;;;5033370;28;20470;-49
2021/11/03 04:29:32;;;;;;;13.60;10.80;;;7.60;99.90;;;;;;5015560;28;20445;-49
2021/11/03 04:31:59;;;;;;;13.40;11.30;;;7.50;99.90;;;;;;5015881;28;20428;-49
2021/11/03 04:34:26;;;;;;;12.57;11.23;;;7.10;99.90;;;;;;5015690;28;20429;-49
2021/11/03 04:36:57;;;;;;;20.07;13.30;;;7.50;99.90;;;;;;5015651;28;20480;-49
2021/11/03 04:39:26;;;;;;;13.57;11.90;;;7.40;99.90;;;;;;5020222;28;20892;-47
2021/11/03 04:41:52;;;;;;;17.37;12.67;;;7.40;99.90;;;;;;5015550;28;20450;-47
2021/11/03 04:44:20;;;;;;;14.37;12.87;;;6.90;99.90;;;;;;5015316;28;20496;-48
2021/11/03 04:46:47;;;;;;;13.37;11.97;;;7.40;99.90;;;;;;5015382;28;20525;-48
2021/11/03 04:49:16;;;;;;;12.53;11.20;;;7.30;99.90;;;;;;5014927;28;20484;-48
2021/11/03 04:51:43;;;;;;;16.83;12.00;;;7.20;99.90;;;;;;5014997;28;20875;-48
2021/11/03 04:54:12;;;;;;;16.63;12.30;;;7.30;99.90;;;;;;5014644;28;20460;-48
2021/11/03 04:56:40;;;;;;;13.93;12.53;;;7.40;99.90;;;;;;5032816;28;20881;-49
2021/11/03 04:59:08;;;;;;;16.37;12.30;;;7.40;99.90;;;;;;5014662;28;20482;-49
2021/11/03 05:01:35;;;;;;;15.60;12.97;;;7.40;99.90;;;;;;5015031;28;21041;-48
2021/11/03 05:04:01;;;;;;;15.37;11.90;;;7.30;99.90;;;;;;5032694;28;20521;-49
2021/11/03 05:06:34;;;;;;;17.40;13.17;;;7.50;99.90;;;;;;5015231;28;20793;-49
2021/11/03 05:09:05;;;;;;;15.27;11.90;;;7.40;99.90;;;;;;5014631;28;20454;-48
2021/11/03 05:11:32;;;;;;;16.60;12.57;;;7.30;99.90;;;;;;5032889;28;20534;-48
2021/11/03 05:14:00;;;;;;;13.87;11.70;;;7.50;99.90;;;;;;5014791;28;20478;-49
2021/11/03 05:16:29;;;;;;;17.43;13.10;;;7.40;99.90;;;;;;5014699;28;20809;-48
2021/11/03 05:18:58;;;;;;;13.40;11.53;;;7.20;99.90;;;;;;5014303;28;20482;-48
2021/11/03 05:21:26;;;;;;;12.53;11.17;;;7.40;99.90;;;;;;5014663;28;20830;-47
2021/11/03 05:23:56;;;;;;;13.63;12.20;;;6.90;99.90;;;;;;5032512;28;20456;-49
2021/11/03 05:26:26;;;;;;;14.30;12.20;;;7.50;99.90;;;;;;5031854;28;20424;-49
2021/11/03 05:28:57;;;;;;;15.43;11.87;;;7.40;99.90;;;;;;5032130;28;20440;-49
2021/11/03 05:31:26;;;;;;;13.30;11.90;;;7.30;99.90;;;;;;5032251;28;20395;-48
2021/11/03 05:33:53;;;;;;;18.70;13.87;;;7.40;99.90;;;;;;5014099;28;20431;-48
2021/11/03 05:36:24;;;;;;;15.23;13.10;;;7.10;99.90;;;;;;5032065;28;20483;-49
2021/11/03 05:38:51;;;;;;;15.67;13.50;;;7.30;99.90;;;;;;5031784;28;20448;-47
2021/11/03 05:41:19;;;;;;;17.03;14.07;;;7.20;99.90;;;;;;5032058;28;20452;-48
2021/11/03 05:43:46;;;;;;;18.53;14.20;;;7.00;99.90;;;;;;5032178;28;20473;-48
2021/11/03 05:46:15;;;;;;;15.77;14.03;;;7.30;99.90;;;;;;5031747;28;20406;-48
2021/11/03 05:48:49;;;;;;;18.90;14.60;;;7.30;99.90;;;;;;5031448;28;20451;-48
2021/11/03 05:51:17;;;;;;;18.00;13.27;;;7.20;99.90;;;;;;5031763;28;20426;-49
2021/11/03 05:53:44;;;;;;;14.37;12.97;;;7.20;99.90;;;;;;5031989;28;20511;-50
2021/11/03 05:56:11;;;;;;;13.70;12.07;;;7.20;99.90;;;;;;5032852;28;20555;-49
2021/11/03 05:58:38;;;;;;;17.60;13.93;;;7.20;99.90;;;;;;5032077;28;20415;-49
2021/11/03 06:01:06;;;;;;;16.53;12.87;;;7.10;99.90;;;;;;5031715;28;20442;-47
2021/11/03 06:03:33;;;;;;;15.10;13.47;;;6.90;99.90;;;;;;5013488;28;20526;-49
2021/11/03 06:06:01;;;;;;;16.37;13.57;;;7.30;99.90;;;;;;5031534;28;20438;-48
2021/11/03 06:08:28;;;;;;;16.47;14.00;;;7.30;99.90;;;;;;5030950;28;20457;-48
2021/11/03 06:10:56;;;;;;;22.50;16.20;;;7.20;99.90;;;;;;5031401;28;20438;-48
2021/11/03 06:13:23;;;;;;;16.97;14.10;;;7.20;99.90;;;;;;5031239;28;20469;-49
2021/11/03 06:15:51;;;;;;;15.10;13.03;;;7.30;99.90;;;;;;5031449;28;20461;-49
2021/11/03 06:18:17;;;;;;;15.33;13.23;;;7.40;99.90;;;;;;5030874;28;20445;-50
2021/11/03 06:20:44;;;;;;;16.57;13.03;;;7.20;99.90;;;;;;5030378;28;20485;-49
2021/11/03 06:23:12;;;;;;;16.17;14.47;;;7.60;99.90;;;;;;5031193;28;20434;-49
2021/11/03 06:25:39;;;;;;;17.10;13.13;;;7.20;99.90;;;;;;5031553;28;20809;-48
2021/11/03 06:28:06;;;;;;;20.77;13.27;;;7.20;99.90;;;;;;5067864;22;20508;-50
2021/11/03 06:30:37;;;;;;;16.37;14.67;;;7.30;99.90;;;;;;5070655;28;20437;-49
2021/11/03 06:33:04;;;;;;;18.57;13.07;;;7.10;99.90;;;;;;5070376;28;20484;-49
2021/11/03 06:35:33;;;;;;;18.50;14.93;;;7.30;99.90;;;;;;5052641;28;20495;-50
2021/11/03 06:38:00;;;;;;;18.43;15.00;;;7.10;99.90;;;;;;5039993;28;20451;-50
2021/11/03 06:40:29;;;;;;;14.40;12.13;;;7.20;99.90;;;;;;5050145;28;20455;-50
2021/11/03 06:42:56;;;;;;;17.23;13.20;;;7.30;99.90;;;;;;5049902;28;20528;-51
2021/11/03 06:45:26;;;;;;;16.53;13.20;;;7.40;99.90;;;;;;5031698;28;20833;-51
2021/11/03 06:47:53;;;;;;;15.20;11.90;;;7.20;99.90;;;;;;5031514;28;20459;-49
2021/11/03 06:50:23;;;;;;;17.60;13.70;;;7.40;99.90;;;;;;5050425;28;20925;-49
2021/11/03 06:52:52;;;;;;;15.87;13.53;;;7.20;99.90;;;;;;5049683;28;20440;-50
2021/11/03 06:55:21;;;;;;;13.47;11.33;;;7.30;99.90;;;;;;5031609;28;20561;-51
2021/11/03 06:57:49;;;;;;;13.03;11.57;;;7.30;99.90;;;;;;5049767;28;20455;-50
2021/11/03 07:00:22;;;;;;;16.57;13.03;;;7.40;99.90;;;;;;5050246;28;20506;-49
2021/11/03 07:02:50;;;;;;;21.60;14.20;;;7.20;99.90;;;;;;5049583;28;20436;-50
2021/11/03 07:05:17;;;;;;;13.40;11.70;;;6.90;99.90;;;;;;5049914;28;20443;-51
2021/11/03 07:07:45;;;;;;;13.77;11.30;;;7.80;99.90;;;;;;5049513;28;20473;-49
2021/11/03 07:10:19;;;;;;;15.60;12.40;;;7.30;99.90;;;;;;5050137;28;20787;-50
2021/11/03 07:12:46;;;;;;;16.50;11.80;;;7.50;99.90;;;;;;5050833;28;20433;-50
2021/11/03 07:15:14;;;;;;;13.93;11.93;;;7.50;99.90;;;;;;5050220;28;20440;-49
2021/11/03 07:17:41;;;;;;;14.70;11.93;;;7.60;99.90;;;;;;5053951;28;20456;-50
2021/11/03 07:20:09;;;;;;;16.87;12.00;;;7.70;99.90;;;;;;5036465;28;20479;-49
2021/11/03 07:22:35;;;;;;;21.37;13.00;;;7.70;99.90;;;;;;5035892;28;20428;-52
2021/11/03 07:25:02;;;;;;;13.40;11.67;;;7.70;99.90;;;;;;5053873;28;20452;-50
2021/11/03 07:27:29;;;;;;;14.00;11.90;;;8.00;99.90;;;;;;5053516;28;20955;-50
2021/11/03 07:29:55;;;;;;;20.53;12.57;;;8.30;99.90;;;;;;5053215;28;20441;-50
2021/11/03 07:32:23;;;;;;;14.57;12.10;;;8.00;99.90;;;;;;5053433;28;20521;-49
2021/11/03 07:34:50;;;;;;;15.80;12.13;;;8.20;99.90;;;;;;5053702;28;20445;-50
2021/11/03 07:37:17;;;;;;;20.40;12.13;;;8.20;99.90;;;;;;5053341;28;20460;-51
2021/11/03 07:39:44;;;;;;;15.60;12.00;;;8.20;99.90;;;;;;5053005;28;20567;-50
2021/11/03 07:42:11;;;;;;;17.67;14.30;;;8.40;99.90;;;;;;5035595;28;20474;-50
2021/11/03 07:44:45;;;;;;;17.23;12.30;;;8.40;99.90;;;;;;5035377;28;20454;-50
2021/11/03 07:47:12;;;;;;;14.40;11.43;;;8.80;99.90;;;;;;5052619;28;20450;-50
2021/11/03 07:49:39;;;;;;;14.50;11.03;;;8.60;99.90;;;;;;5052785;28;20435;-50
2021/11/03 07:52:07;;;;;;;14.40;11.70;;;8.60;99.90;;;;;;5052904;28;20426;-50
2021/11/03 07:54:34;;;;;;;13.30;11.10;;;8.50;99.90;;;;;;5052878;28;20434;-51
2021/11/03 07:57:00;;;;;;;15.50;11.73;;;8.60;99.90;;;;;;5053193;28;20446;-49
2021/11/03 07:59:27;;;;;;;18.30;10.77;;;8.80;99.90;;;;;;5052538;28;20456;-49
2021/11/03 08:01:54;;;;;;;20.00;12.70;;;8.50;99.90;;;;;;5052908;28;20788;-50
2021/11/03 08:04:21;;;;;;;17.33;13.37;;;9.20;99.90;;;;;;5052875;28;20449;-50
2021/11/03 08:06:49;;;;;;;20.63;12.37;;;9.00;99.90;;;;;;5052732;28;20733;-49
2021/11/03 08:09:16;;;;;;;19.73;14.03;;;8.90;99.90;;;;;;5052207;28;20420;-50
2021/11/03 08:11:49;;;;;;;16.63;12.57;;;8.90;99.90;;;;;;5034110;28;20854;-50
2021/11/03 08:14:18;;;;;;;18.03;12.63;;;8.90;99.90;;;;;;5052580;28;20533;-50
2021/11/03 08:16:51;;;;;;;14.83;12.50;;;9.20;99.90;;;;;;5052880;28;20436;-50
2021/11/03 08:19:18;;;;;;;17.80;12.27;;;9.30;99.90;;;;;;5052070;28;20434;-49
2021/11/03 08:21:45;;;;;;;20.93;13.10;;;9.10;99.90;;;;;;5052603;28;20434;-50
2021/11/03 08:24:13;;;;;;;17.23;12.20;;;9.00;99.90;;;;;;5053072;28;20881;-49
2021/11/03 08:26:39;;;;;;;18.40;14.80;;;9.10;99.90;;;;;;5052485;28;20807;-49
2021/11/03 08:29:06;;;;;;;15.67;13.57;;;9.10;99.90;;;;;;5051983;28;20434;-49
2021/11/03 08:31:35;;;;;;;16.03;11.77;;;9.00;99.90;;;;;;5052400;28;20439;-49
2021/11/03 08:34:02;;;;;;;17.30;13.00;;;9.60;99.90;;;;;;5052525;28;20759;-49
2021/11/03 08:36:29;;;;;;;15.80;12.00;;;9.10;99.90;;;;;;5052113;28;20834;-49
2021/11/03 08:38:59;;;;;;;13.87;11.80;;;9.20;99.90;;;;;;5051774;28;20463;-48
2021/11/03 08:41:28;;;;;;;20.70;12.67;;;9.40;99.90;;;;;;5051979;28;20481;-49
2021/11/03 08:43:55;;;;;;;18.83;12.80;;;9.50;99.90;;;;;;5052685;28;20413;-49
2021/11/03 08:46:22;;;;;;;15.07;12.07;;;9.80;99.90;;;;;;5052156;28;20458;-48
2021/11/03 08:48:52;;;;;;;18.27;13.60;;;9.60;99.90;;;;;;5051956;28;20450;-49
2021/11/03 08:51:19;;;;;;;17.87;13.13;;;9.60;99.90;;;;;;5051961;28;20525;-48
2021/11/03 08:53:45;;;;;;;13.30;11.17;;;9.60;99.90;;;;;;5052469;28;20441;-49
2021/11/03 08:56:12;;;;;;;15.17;11.43;;;9.50;99.90;;;;;;5052317;28;20536;-50
2021/11/03 08:58:40;;;;;;;17.67;12.70;;;9.70;99.90;;;;;;5051550;28;20565;-49
2021/11/03 09:01:07;;;;;;;16.00;11.90;;;9.30;99.90;;;;;;5051946;28;20573;-49
2021/11/03 09:03:34;;;;;;;14.40;11.80;;;9.60;99.90;;;;;;5034530;28;20459;-50
2021/11/03 09:06:01;;;;;;;15.90;11.73;;;9.80;99.90;;;;;;5051795;28;20945;-50
2021/11/03 09:08:28;;;;;;;13.90;11.80;;;9.80;99.90;;;;;;5051581;28;20481;-50
2021/11/03 09:11:00;;;;;;;16.60;11.53;;;9.60;99.90;;;;;;5052301;28;20481;-50
2021/11/03 09:13:28;;;;;;;15.40;11.20;;;10.40;99.90;;;;;;5051778;28;20516;-50
2021/11/03 09:15:57;;;;;;;16.47;12.17;;;9.80;99.90;;;;;;5052168;28;20438;-50
2021/11/03 09:18:23;;;;;;;15.30;12.27;;;10.00;99.90;;;;;;5051199;28;20554;-50
2021/11/03 09:20:52;;;;;;;16.60;12.20;;;9.90;99.90;;;;;;5051688;28;20483;-50
2021/11/03 09:23:19;;;;;;;15.57;11.77;;;10.60;99.90;;;;;;5051782;28;20437;-49
2021/11/03 09:25:47;;;;;;;14.27;12.00;;;10.50;99.90;;;;;;5033756;28;20443;-50
2021/11/03 09:28:15;;;;;;;14.20;11.70;;;10.70;99.90;;;;;;5051128;28;20469;-50
2021/11/03 09:30:41;;;;;;;13.60;11.70;;;10.80;99.90;;;;;;5051681;28;20434;-50
2021/11/03 09:33:11;;;;;;;15.67;12.37;;;10.80;99.90;;;;;;5051955;28;20450;-50
2021/11/03 09:35:41;;;;;;;13.27;11.87;;;10.80;99.90;;;;;;5051731;28;20521;-50
2021/11/03 09:38:11;;;;;;;27.03;13.30;;;10.60;99.90;;;;;;5050561;28;20458;-50
2021/11/03 09:40:47;;;;;;;16.23;13.40;;;10.80;99.90;;;;;;5051154;28;20474;-50
2021/11/03 09:43:27;;;;;;;15.43;11.60;;;11.00;99.90;;;;;;5051448;28;20439;-50
2021/11/03 09:45:55;;;;;;;19.57;13.97;;;10.30;99.90;;;;;;5051103;28;20450;-50
2021/11/03 09:48:26;;;;;;;14.77;11.80;;;10.80;99.90;;;;;;5050705;28;20816;-49
2021/11/03 09:50:56;;;;;;;16.03;11.40;;;10.90;99.90;;;;;;5051252;28;20446;-49
2021/11/03 09:53:27;;;;;;;14.90;13.30;;;10.80;99.90;;;;;;5050990;28;20439;-50
2021/11/03 09:55:54;;;;;;;13.30;11.40;;;10.90;99.90;;;;;;5051223;28;20447;-51
2021/11/03 09:58:37;;;;;;;14.60;11.80;;;11.20;99.90;;;;;;5050960;28;20455;-49
2021/11/03 10:01:13;;;;;;;14.67;12.30;;;10.90;99.90;;;;;;5051197;28;20485;-48
2021/11/03 10:03:51;;;;;;;14.63;11.57;;;11.00;99.90;;;;;;5051404;28;20750;-49
2021/11/03 10:06:22;;;;;;;14.03;12.43;;;11.10;99.90;;;;;;5051428;28;20454;-49
2021/11/03 10:08:52;;;;;;;17.23;12.60;;;10.70;99.90;;;;;;5050917;28;20473;-49
2021/11/03 10:11:24;;;;;;;23.07;13.57;;;11.00;99.90;;;;;;5050873;28;20451;-49
2021/11/03 10:13:53;;;;;;;19.97;14.73;;;11.10;99.90;;;;;;5050931;28;20449;-49
2021/11/03 10:16:30;;;;;;;21.40;13.23;;;10.70;99.90;;;;;;5050691;28;20501;-50
2021/11/03 10:19:01;;;;;;;17.23;13.93;;;10.70;99.90;;;;;;5050421;28;20458;-50
2021/11/03 10:21:39;;;;;;;16.13;12.97;;;10.60;99.90;;;;;;5050583;28;20515;-49
2021/11/03 10:24:23;;;;;;;16.20;13.37;;;10.90;99.90;;;;;;5050766;28;20426;-49
2021/11/03 10:26:53;;;;;;;16.33;14.07;;;11.00;99.90;;;;;;5050361;28;20445;-51
2021/11/03 10:29:26;;;;;;;14.63;13.13;;;10.90;99.90;;;;;;5050444;28;20479;-51
2021/11/03 10:31:57;;;;;;;18.00;14.57;;;10.70;99.90;;;;;;5050785;28;20792;-50
2021/11/03 10:34:28;;;;;;;17.80;13.93;;;10.80;99.90;;;;;;5050899;28;20445;-51
2021/11/03 10:37:10;;;;;;;16.77;14.13;;;10.80;99.90;;;;;;5050709;28;20459;-50
2021/11/03 10:39:44;;;;;;;14.33;12.83;;;10.90;99.90;;;;;;5050893;28;20442;-49
2021/11/03 10:42:19;;;;;;;16.00;13.30;;;11.00;99.90;;;;;;5033020;28;21083;-52
2021/11/03 10:44:47;;;;;;;16.47;13.17;;;11.00;99.90;;;;;;5050943;28;20436;-49
2021/11/03 10:47:18;;;;;;;13.50;12.10;;;11.10;99.90;;;;;;5050793;28;20551;-48
2021/11/03 10:49:58;;;;;;;15.50;12.87;;;11.60;99.90;;;;;;5050588;28;20539;-49
2021/11/03 10:52:41;;;;;;;13.80;11.73;;;11.50;99.90;;;;;;5054524;28;20515;-50
2021/11/03 10:55:20;;;;;;;18.20;11.73;;;11.10;99.90;;;;;;5036559;28;20446;-49
2021/11/03 10:57:54;;;;;;;11.90;10.70;;;11.30;99.90;;;;;;5054348;28;20800;-48
2021/11/03 11:00:24;;;;;;;14.30;12.07;;;11.50;99.90;;;;;;5036244;28;20761;-49
2021/11/03 11:02:56;;;;;;;15.30;11.50;;;11.70;99.90;;;;;;5054110;28;20498;-49
2021/11/03 11:05:28;;;;;;;14.33;12.40;;;11.20;99.90;;;;;;5054264;28;20440;-51
2021/11/03 11:07:59;;;;;;;34.10;26.33;;;11.80;99.90;;;;;;5053739;28;20456;-51
2021/11/03 11:10:33;;;;;;;12.33;10.57;;;11.60;99.90;;;;;;5054504;28;20489;-49
2021/11/03 11:13:01;;;;;;;14.70;11.07;;;11.70;99.90;;;;;;5054320;28;20437;-51
2021/11/03 11:15:33;;;;;;;16.43;11.20;;;12.20;99.90;;;;;;5054132;28;20707;-51
2021/11/03 11:18:07;;;;;;;10.87;9.77;;;11.70;99.90;;;;;;5053487;28;20551;-51
2021/11/03 11:20:39;;;;;;;16.20;10.83;;;11.80;99.90;;;;;;5054050;28;20991;-49
2021/11/03 11:23:16;;;;;;;15.30;11.77;;;12.10;99.90;;;;;;5053968;28;20441;-49
2021/11/03 11:25:54;;;;;;;12.77;9.43;;;12.10;99.90;;;;;;5054295;28;20529;-48
2021/11/03 11:28:33;;;;;;;10.73;9.67;;;12.30;99.90;;;;;;5035215;28;20578;-49
2021/11/03 11:31:07;;;;;;;17.20;10.37;;;12.60;99.90;;;;;;5035862;28;20445;-49
2021/11/03 11:33:39;;;;;;;11.53;9.27;;;12.20;99.90;;;;;;5053495;28;20416;-49
2021/11/03 11:36:23;;;;;;;11.57;9.70;;;11.90;99.90;;;;;;5054103;28;20844;-48
2021/11/03 11:38:59;;;;;;;9.87;8.87;;;12.50;99.90;;;;;;5053157;28;20449;-49
2021/11/03 11:41:29;;;;;;;13.00;10.00;;;12.30;99.90;;;;;;5053553;28;20473;-50
2021/11/03 11:44:04;;;;;;;10.43;9.33;;;12.50;99.90;;;;;;5053659;28;20958;-49
2021/11/03 11:46:32;;;;;;;10.57;9.53;;;12.70;99.90;;;;;;5035136;28;20980;-49
2021/11/03 11:49:05;;;;;;;10.10;8.93;;;12.60;99.90;;;;;;5052572;28;20432;-49
2021/11/03 11:51:36;;;;;;;11.63;9.70;;;12.40;99.90;;;;;;5035310;28;20450;-49
2021/11/03 11:54:24;;;;;;;11.33;10.03;;;12.10;99.90;;;;;;5035256;28;20428;-49
2021/11/03 11:57:21;;;;;;;11.20;10.10;;;12.70;99.90;;;;;;5053353;28;20914;-51
2021/11/03 12:00:23;;;;;;;10.33;9.23;;;12.90;99.90;;;;;;5036795;28;20558;-49
2021/11/03 12:03:16;;;;;;;9.07;8.27;;;12.80;99.90;;;;;;5052356;28;20447;-52
2021/11/03 12:05:51;;;;;;;9.33;8.43;;;12.70;99.90;;;;;;5049423;28;20928;-51
2021/11/03 12:08:26;;;;;;;9.17;7.73;;;12.50;99.90;;;;;;5052329;28;20830;-50
2021/11/03 12:11:16;;;;;;;10.43;9.33;;;12.50;99.90;;;;;;5053364;28;20795;-49
2021/11/03 12:14:21;;;;;;;9.87;8.90;;;12.40;99.90;;;;;;5053364;28;20464;-49
2021/11/03 12:16:56;;;;;;;8.10;7.30;;;12.30;99.90;;;;;;5052200;28;20498;-50
2021/11/03 12:19:49;;;;;;;8.03;7.23;;;11.70;99.90;;;;;;5052496;28;20440;-50
2021/11/03 12:22:36;;;;;;;13.90;9.03;;;12.00;99.90;;;;;;5052696;28;20534;-49
2021/11/03 12:25:37;;;;;;;9.50;7.97;;;12.00;99.90;;;;;;5051498;28;20445;-50
2021/11/03 12:28:37;;;;;;;11.07;7.20;;;12.00;99.90;;;;;;5075660;22;20528;-49
2021/11/03 12:31:17;;;;;;;7.53;6.73;;;11.90;99.90;;;;;;5052390;28;20766;-48
2021/11/03 12:34:20;;;;;;;9.47;7.23;;;11.80;99.90;;;;;;5053136;28;20432;-47
2021/11/03 12:37:22;;;;;;;8.27;7.47;;;11.80;99.90;;;;;;5053072;28;20436;-49
2021/11/03 12:40:24;;;;;;;7.50;6.70;;;11.80;99.90;;;;;;5033460;28;20433;-48
2021/11/03 12:42:58;;;;;;;8.77;7.43;;;11.80;99.90;;;;;;5033195;28;20687;-47
2021/11/03 12:45:32;;;;;;;6.70;5.83;;;11.70;99.90;;;;;;5033803;28;20442;-47
2021/11/03 12:48:02;;;;;;;8.37;6.00;;;11.70;99.90;;;;;;5033346;28;20493;-48
2021/11/03 12:50:32;;;;;;;8.23;5.73;;;11.70;99.90;;;;;;5033776;28;20527;-48
2021/11/03 12:53:10;;;;;;;7.37;6.03;;;11.70;99.90;;;;;;5034059;28;20528;-48
2021/11/03 12:55:44;;;;;;;12.10;6.17;;;11.30;99.90;;;;;;5034073;28;20443;-48
2021/11/03 12:58:29;;;;;;;12.57;6.90;;;11.60;99.90;;;;;;5031809;28;20465;-48